sensor_id;sensor_type;location;lat;lon;timestamp;P1;durP1;ratioP1;P2;durP2;ratioP2
58760;SDS011;44529;47.464;19.014;2023-04-01T00:02:18;4.45;;;2.70;;
58760;SDS011;44529;47.464;19.014;2023-04-01T00:05:21;7.50;;;2.90;;
58760;SDS011;44529;47.464;19.014;2023-04-01T00:08:26;4.68;;;2.90;;
58760;SDS011;44529;47.464;19.014;2023-04-01T00:11:28;3.92;;;3.28;;
58760;SDS011;44529;47.464;19.014;2023-04-01T00:14:31;8.15;;;3.83;;
58760;SDS011;44529;47.464;19.014;2023-04-01T00:17:33;4.43;;;3.10;;
58760;SDS011;44529;47.464;19.014;2023-04-01T00:20:35;4.40;;;3.00;;
58760;SDS011;44529;47.464;19.014;2023-04-01T00:23:38;4.53;;;3.28;;
58760;SDS011;44529;47.464;19.014;2023-04-01T00:26:40;5.85;;;3.40;;
58760;SDS011;44529;47.464;19.014;2023-04-01T00:29:44;6.53;;;3.72;;
58760;SDS011;44529;47.464;19.014;2023-04-01T00:32:51;6.95;;;3.83;;
58760;SDS011;44529;47.464;19.014;2023-04-01T00:35:54;7.00;;;3.80;;
58760;SDS011;44529;47.464;19.014;2023-04-01T00:38:57;4.60;;;3.62;;
58760;SDS011;44529;47.464;19.014;2023-04-01T00:42:01;5.25;;;4.07;;
58760;SDS011;44529;47.464;19.014;2023-04-01T00:45:24;4.20;;;3.58;;
58760;SDS011;44529;47.464;19.014;2023-04-01T00:48:34;4.40;;;3.35;;
58760;SDS011;44529;47.464;19.014;2023-04-01T00:51:40;4.30;;;3.10;;
58760;SDS011;44529;47.464;19.014;2023-04-01T00:54:46;5.85;;;3.45;;
58760;SDS011;44529;47.464;19.014;2023-04-01T00:57:50;5.68;;;3.53;;
58760;SDS011;44529;47.464;19.014;2023-04-01T01:00:55;4.80;;;3.15;;
58760;SDS011;44529;47.464;19.014;2023-04-01T01:04:01;5.32;;;3.40;;
58760;SDS011;44529;47.464;19.014;2023-04-01T01:10:45;5.95;;;2.80;;
58760;SDS011;44529;47.464;19.014;2023-04-01T01:17:32;4.37;;;3.05;;
58760;SDS011;44529;47.464;19.014;2023-04-01T01:27:23;3.67;;;3.00;;
58760;SDS011;44529;47.464;19.014;2023-04-01T01:36:56;3.80;;;3.22;;
58760;SDS011;44529;47.464;19.014;2023-04-01T01:40:04;5.90;;;3.47;;
58760;SDS011;44529;47.464;19.014;2023-04-01T01:43:11;4.35;;;3.70;;
58760;SDS011;44529;47.464;19.014;2023-04-01T01:46:18;5.70;;;3.90;;
58760;SDS011;44529;47.464;19.014;2023-04-01T01:49:24;5.85;;;3.80;;
58760;SDS011;44529;47.464;19.014;2023-04-01T01:52:27;8.80;;;4.47;;
58760;SDS011;44529;47.464;19.014;2023-04-01T01:55:33;5.43;;;4.07;;
58760;SDS011;44529;47.464;19.014;2023-04-01T01:58:38;5.65;;;4.10;;
58760;SDS011;44529;47.464;19.014;2023-04-01T02:01:46;5.10;;;4.30;;
58760;SDS011;44529;47.464;19.014;2023-04-01T02:04:52;6.10;;;4.85;;
58760;SDS011;44529;47.464;19.014;2023-04-01T02:11:41;5.07;;;4.57;;
58760;SDS011;44529;47.464;19.014;2023-04-01T02:14:55;9.88;;;5.03;;
58760;SDS011;44529;47.464;19.014;2023-04-01T02:17:59;6.20;;;5.07;;
58760;SDS011;44529;47.464;19.014;2023-04-01T02:21:01;6.53;;;5.43;;
58760;SDS011;44529;47.464;19.014;2023-04-01T02:24:08;8.15;;;5.37;;
58760;SDS011;44529;47.464;19.014;2023-04-01T02:27:14;4.75;;;4.35;;
58760;SDS011;44529;47.464;19.014;2023-04-01T02:30:17;5.53;;;4.03;;
58760;SDS011;44529;47.464;19.014;2023-04-01T02:33:20;5.53;;;4.10;;
58760;SDS011;44529;47.464;19.014;2023-04-01T02:36:24;4.68;;;3.97;;
58760;SDS011;44529;47.464;19.014;2023-04-01T02:39:27;4.35;;;3.75;;
58760;SDS011;44529;47.464;19.014;2023-04-01T02:42:29;4.22;;;3.83;;
58760;SDS011;44529;47.464;19.014;2023-04-01T02:45:32;4.57;;;3.60;;
58760;SDS011;44529;47.464;19.014;2023-04-01T02:48:34;6.35;;;4.12;;
58760;SDS011;44529;47.464;19.014;2023-04-01T02:51:37;4.25;;;3.70;;
58760;SDS011;44529;47.464;19.014;2023-04-01T02:54:39;4.57;;;3.78;;
58760;SDS011;44529;47.464;19.014;2023-04-01T02:57:42;4.37;;;3.50;;
58760;SDS011;44529;47.464;19.014;2023-04-01T03:00:44;3.75;;;3.40;;
58760;SDS011;44529;47.464;19.014;2023-04-01T03:03:47;5.07;;;3.12;;
58760;SDS011;44529;47.464;19.014;2023-04-01T03:06:49;5.30;;;3.25;;
58760;SDS011;44529;47.464;19.014;2023-04-01T03:09:52;4.18;;;3.62;;
58760;SDS011;44529;47.464;19.014;2023-04-01T03:12:54;4.70;;;3.60;;
58760;SDS011;44529;47.464;19.014;2023-04-01T03:15:57;6.72;;;3.37;;
58760;SDS011;44529;47.464;19.014;2023-04-01T03:18:59;6.07;;;3.00;;
58760;SDS011;44529;47.464;19.014;2023-04-01T03:22:04;5.18;;;2.83;;
58760;SDS011;44529;47.464;19.014;2023-04-01T03:25:06;4.22;;;3.17;;
58760;SDS011;44529;47.464;19.014;2023-04-01T03:28:10;3.25;;;3.00;;
58760;SDS011;44529;47.464;19.014;2023-04-01T03:31:12;4.97;;;3.15;;
58760;SDS011;44529;47.464;19.014;2023-04-01T03:34:15;3.70;;;3.30;;
58760;SDS011;44529;47.464;19.014;2023-04-01T03:37:18;3.50;;;3.00;;
58760;SDS011;44529;47.464;19.014;2023-04-01T03:40:20;3.83;;;3.40;;
58760;SDS011;44529;47.464;19.014;2023-04-01T03:43:23;3.37;;;3.10;;
58760;SDS011;44529;47.464;19.014;2023-04-01T03:46:25;3.40;;;3.10;;
58760;SDS011;44529;47.464;19.014;2023-04-01T03:49:28;4.25;;;2.92;;
58760;SDS011;44529;47.464;19.014;2023-04-01T03:52:31;4.20;;;3.10;;
58760;SDS011;44529;47.464;19.014;2023-04-01T03:55:33;3.33;;;2.83;;
58760;SDS011;44529;47.464;19.014;2023-04-01T03:58:37;3.92;;;2.78;;
58760;SDS011;44529;47.464;19.014;2023-04-01T04:01:41;4.82;;;2.78;;
58760;SDS011;44529;47.464;19.014;2023-04-01T04:04:43;2.95;;;2.60;;
58760;SDS011;44529;47.464;19.014;2023-04-01T04:07:46;3.25;;;2.12;;
58760;SDS011;44529;47.464;19.014;2023-04-01T04:10:54;2.03;;;1.87;;
58760;SDS011;44529;47.464;19.014;2023-04-01T04:13:57;4.12;;;1.90;;
58760;SDS011;44529;47.464;19.014;2023-04-01T04:17:00;2.85;;;1.80;;
58760;SDS011;44529;47.464;19.014;2023-04-01T04:20:03;1.95;;;1.62;;
58760;SDS011;44529;47.464;19.014;2023-04-01T04:23:06;3.17;;;1.55;;
58760;SDS011;44529;47.464;19.014;2023-04-01T04:26:10;2.55;;;1.60;;
58760;SDS011;44529;47.464;19.014;2023-04-01T04:29:14;2.85;;;1.70;;
58760;SDS011;44529;47.464;19.014;2023-04-01T04:32:17;3.05;;;1.50;;
58760;SDS011;44529;47.464;19.014;2023-04-01T04:35:19;2.37;;;1.70;;
58760;SDS011;44529;47.464;19.014;2023-04-01T04:38:21;1.75;;;1.60;;
58760;SDS011;44529;47.464;19.014;2023-04-01T04:41:24;2.67;;;1.95;;
58760;SDS011;44529;47.464;19.014;2023-04-01T04:44:27;2.95;;;1.42;;
58760;SDS011;44529;47.464;19.014;2023-04-01T04:47:30;2.60;;;1.35;;
58760;SDS011;44529;47.464;19.014;2023-04-01T04:50:33;1.67;;;1.52;;
58760;SDS011;44529;47.464;19.014;2023-04-01T04:53:35;3.53;;;1.40;;
58760;SDS011;44529;47.464;19.014;2023-04-01T04:56:37;2.67;;;1.62;;
58760;SDS011;44529;47.464;19.014;2023-04-01T04:59:40;2.53;;;1.45;;
58760;SDS011;44529;47.464;19.014;2023-04-01T05:02:43;2.05;;;1.27;;
58760;SDS011;44529;47.464;19.014;2023-04-01T05:05:50;1.50;;;1.40;;
58760;SDS011;44529;47.464;19.014;2023-04-01T05:08:53;1.73;;;1.10;;
58760;SDS011;44529;47.464;19.014;2023-04-01T05:11:57;2.95;;;1.60;;
58760;SDS011;44529;47.464;19.014;2023-04-01T05:15:00;1.40;;;1.20;;
58760;SDS011;44529;47.464;19.014;2023-04-01T05:18:03;2.20;;;1.27;;
58760;SDS011;44529;47.464;19.014;2023-04-01T05:21:06;1.45;;;1.30;;
58760;SDS011;44529;47.464;19.014;2023-04-01T05:24:10;2.85;;;1.50;;
58760;SDS011;44529;47.464;19.014;2023-04-01T05:27:12;1.50;;;1.17;;
58760;SDS011;44529;47.464;19.014;2023-04-01T05:30:15;1.80;;;1.40;;
58760;SDS011;44529;47.464;19.014;2023-04-01T05:33:18;2.65;;;1.27;;
58760;SDS011;44529;47.464;19.014;2023-04-01T05:36:21;2.05;;;1.58;;
58760;SDS011;44529;47.464;19.014;2023-04-01T05:39:24;2.75;;;1.65;;
58760;SDS011;44529;47.464;19.014;2023-04-01T05:42:27;3.33;;;1.52;;
58760;SDS011;44529;47.464;19.014;2023-04-01T05:45:29;2.95;;;1.33;;
58760;SDS011;44529;47.464;19.014;2023-04-01T05:48:34;2.20;;;1.23;;
58760;SDS011;44529;47.464;19.014;2023-04-01T05:51:37;4.30;;;1.62;;
58760;SDS011;44529;47.464;19.014;2023-04-01T05:54:39;1.17;;;1.00;;
58760;SDS011;44529;47.464;19.014;2023-04-01T05:57:42;2.03;;;1.60;;
58760;SDS011;44529;47.464;19.014;2023-04-01T06:00:44;1.62;;;1.52;;
58760;SDS011;44529;47.464;19.014;2023-04-01T06:03:50;1.73;;;1.35;;
58760;SDS011;44529;47.464;19.014;2023-04-01T06:06:53;1.95;;;1.60;;
58760;SDS011;44529;47.464;19.014;2023-04-01T06:09:55;2.80;;;1.33;;
58760;SDS011;44529;47.464;19.014;2023-04-01T06:13:04;2.33;;;1.30;;
58760;SDS011;44529;47.464;19.014;2023-04-01T06:16:21;1.60;;;1.50;;
58760;SDS011;44529;47.464;19.014;2023-04-01T06:39:22;3.80;;;1.50;;
58760;SDS011;44529;47.464;19.014;2023-04-01T06:43:02;3.65;;;1.52;;
58760;SDS011;44529;47.464;19.014;2023-04-01T06:56:44;2.90;;;1.50;;
58760;SDS011;44529;47.464;19.014;2023-04-01T06:59:50;3.92;;;1.40;;
58760;SDS011;44529;47.464;19.014;2023-04-01T07:02:55;4.07;;;1.40;;
58760;SDS011;44529;47.464;19.014;2023-04-01T07:06:03;3.35;;;1.70;;
58760;SDS011;44529;47.464;19.014;2023-04-01T07:09:12;1.85;;;1.55;;
58760;SDS011;44529;47.464;19.014;2023-04-01T07:15:54;4.05;;;1.87;;
58760;SDS011;44529;47.464;19.014;2023-04-01T07:19:08;2.58;;;1.58;;
58760;SDS011;44529;47.464;19.014;2023-04-01T07:25:51;1.50;;;1.40;;
58760;SDS011;44529;47.464;19.014;2023-04-01T07:28:56;4.43;;;2.00;;
58760;SDS011;44529;47.464;19.014;2023-04-01T07:49:01;1.15;;;0.93;;
58760;SDS011;44529;47.464;19.014;2023-04-01T07:52:12;2.60;;;1.17;;
58760;SDS011;44529;47.464;19.014;2023-04-01T07:55:32;1.25;;;0.88;;
58760;SDS011;44529;47.464;19.014;2023-04-01T08:05:19;2.33;;;1.00;;
58760;SDS011;44529;47.464;19.014;2023-04-01T08:15:26;2.10;;;0.77;;
58760;SDS011;44529;47.464;19.014;2023-04-01T08:21:42;2.05;;;0.75;;
58760;SDS011;44529;47.464;19.014;2023-04-01T08:24:48;0.80;;;0.65;;
58760;SDS011;44529;47.464;19.014;2023-04-01T08:27:56;2.12;;;1.25;;
58760;SDS011;44529;47.464;19.014;2023-04-01T08:31:12;3.00;;;0.77;;
58760;SDS011;44529;47.464;19.014;2023-04-01T08:34:20;3.20;;;0.85;;
58760;SDS011;44529;47.464;19.014;2023-04-01T08:37:28;2.45;;;0.98;;
58760;SDS011;44529;47.464;19.014;2023-04-01T08:46:49;1.45;;;0.70;;
58760;SDS011;44529;47.464;19.014;2023-04-01T09:00:51;1.55;;;0.80;;
58760;SDS011;44529;47.464;19.014;2023-04-01T09:17:58;3.47;;;1.20;;
58760;SDS011;44529;47.464;19.014;2023-04-01T09:21:18;3.30;;;1.33;;
58760;SDS011;44529;47.464;19.014;2023-04-01T09:24:50;2.70;;;1.30;;
58760;SDS011;44529;47.464;19.014;2023-04-01T09:31:21;2.50;;;0.80;;
58760;SDS011;44529;47.464;19.014;2023-04-01T09:41:27;2.25;;;1.17;;
58760;SDS011;44529;47.464;19.014;2023-04-01T09:44:37;3.92;;;1.15;;
58760;SDS011;44529;47.464;19.014;2023-04-01T09:51:01;3.50;;;1.10;;
58760;SDS011;44529;47.464;19.014;2023-04-01T10:04:43;3.10;;;1.60;;
58760;SDS011;44529;47.464;19.014;2023-04-01T10:15:20;1.62;;;1.00;;
58760;SDS011;44529;47.464;19.014;2023-04-01T10:28:50;2.15;;;1.25;;
58760;SDS011;44529;47.464;19.014;2023-04-01T10:53:13;2.08;;;1.33;;
58760;SDS011;44529;47.464;19.014;2023-04-01T10:56:49;3.78;;;1.50;;
58760;SDS011;44529;47.464;19.014;2023-04-01T11:13:41;3.22;;;1.10;;
58760;SDS011;44529;47.464;19.014;2023-04-01T11:44:39;2.35;;;1.05;;
58760;SDS011;44529;47.464;19.014;2023-04-01T11:48:03;1.45;;;0.68;;
58760;SDS011;44529;47.464;19.014;2023-04-01T12:21:38;3.50;;;1.17;;
58760;SDS011;44529;47.464;19.014;2023-04-01T12:24:47;1.55;;;1.10;;
58760;SDS011;44529;47.464;19.014;2023-04-01T12:47:43;2.72;;;0.95;;
58760;SDS011;44529;47.464;19.014;2023-04-01T12:50:58;2.42;;;1.00;;
58760;SDS011;44529;47.464;19.014;2023-04-01T13:08:35;2.85;;;0.80;;
58760;SDS011;44529;47.464;19.014;2023-04-01T13:19:08;1.23;;;0.90;;
58760;SDS011;44529;47.464;19.014;2023-04-01T13:22:28;3.22;;;0.90;;
58760;SDS011;44529;47.464;19.014;2023-04-01T13:25:39;1.55;;;0.88;;
58760;SDS011;44529;47.464;19.014;2023-04-01T13:29:20;1.70;;;1.02;;
58760;SDS011;44529;47.464;19.014;2023-04-01T13:32:29;1.60;;;0.90;;
58760;SDS011;44529;47.464;19.014;2023-04-01T13:35:46;1.42;;;1.20;;
58760;SDS011;44529;47.464;19.014;2023-04-01T13:39:03;2.22;;;0.80;;
58760;SDS011;44529;47.464;19.014;2023-04-01T13:42:16;2.90;;;1.23;;
58760;SDS011;44529;47.464;19.014;2023-04-01T13:45:24;2.70;;;1.15;;
58760;SDS011;44529;47.464;19.014;2023-04-01T13:48:41;2.85;;;1.12;;
58760;SDS011;44529;47.464;19.014;2023-04-01T14:18:53;2.78;;;1.05;;
58760;SDS011;44529;47.464;19.014;2023-04-01T14:22:23;2.05;;;0.73;;
58760;SDS011;44529;47.464;19.014;2023-04-01T14:32:46;1.87;;;0.73;;
58760;SDS011;44529;47.464;19.014;2023-04-01T14:39:56;1.30;;;1.05;;
58760;SDS011;44529;47.464;19.014;2023-04-01T14:49:40;3.22;;;1.20;;
58760;SDS011;44529;47.464;19.014;2023-04-01T14:52:51;2.10;;;1.10;;
58760;SDS011;44529;47.464;19.014;2023-04-01T14:55:59;2.10;;;1.20;;
58760;SDS011;44529;47.464;19.014;2023-04-01T14:59:14;2.70;;;1.27;;
58760;SDS011;44529;47.464;19.014;2023-04-01T15:12:20;1.62;;;0.90;;
58760;SDS011;44529;47.464;19.014;2023-04-01T15:15:36;3.10;;;1.08;;
58760;SDS011;44529;47.464;19.014;2023-04-01T15:32:18;1.25;;;0.90;;
58760;SDS011;44529;47.464;19.014;2023-04-01T15:35:52;1.10;;;0.70;;
58760;SDS011;44529;47.464;19.014;2023-04-01T15:39:19;0.75;;;0.62;;
58760;SDS011;44529;47.464;19.014;2023-04-01T15:46:09;1.15;;;0.50;;
58760;SDS011;44529;47.464;19.014;2023-04-01T15:52:35;3.37;;;0.50;;
58760;SDS011;44529;47.464;19.014;2023-04-01T15:56:00;1.15;;;0.52;;
58760;SDS011;44529;47.464;19.014;2023-04-01T15:59:18;0.75;;;0.75;;
58760;SDS011;44529;47.464;19.014;2023-04-01T16:02:35;1.65;;;1.00;;
58760;SDS011;44529;47.464;19.014;2023-04-01T16:09:43;1.12;;;0.70;;
58760;SDS011;44529;47.464;19.014;2023-04-01T16:13:02;1.73;;;0.52;;
58760;SDS011;44529;47.464;19.014;2023-04-01T16:16:25;1.15;;;0.40;;
58760;SDS011;44529;47.464;19.014;2023-04-01T16:19:47;1.35;;;0.80;;
58760;SDS011;44529;47.464;19.014;2023-04-01T16:22:56;1.30;;;0.88;;
58760;SDS011;44529;47.464;19.014;2023-04-01T16:29:43;1.52;;;0.60;;
58760;SDS011;44529;47.464;19.014;2023-04-01T16:32:51;1.33;;;0.80;;
58760;SDS011;44529;47.464;19.014;2023-04-01T16:43:06;1.50;;;0.60;;
58760;SDS011;44529;47.464;19.014;2023-04-01T16:49:39;2.75;;;0.80;;
58760;SDS011;44529;47.464;19.014;2023-04-01T16:53:08;1.25;;;0.62;;
58760;SDS011;44529;47.464;19.014;2023-04-01T16:56:24;0.43;;;0.43;;
58760;SDS011;44529;47.464;19.014;2023-04-01T16:59:54;1.85;;;0.70;;
58760;SDS011;44529;47.464;19.014;2023-04-01T17:07:10;4.40;;;1.58;;
58760;SDS011;44529;47.464;19.014;2023-04-01T17:23:45;3.35;;;1.25;;
58760;SDS011;44529;47.464;19.014;2023-04-01T17:26:56;1.73;;;1.00;;
58760;SDS011;44529;47.464;19.014;2023-04-01T17:30:12;3.62;;;1.40;;
58760;SDS011;44529;47.464;19.014;2023-04-01T17:46:53;4.25;;;2.70;;
58760;SDS011;44529;47.464;19.014;2023-04-01T17:50:09;5.28;;;3.40;;
58760;SDS011;44529;47.464;19.014;2023-04-01T17:56:54;6.32;;;3.05;;
58760;SDS011;44529;47.464;19.014;2023-04-01T18:11:04;4.30;;;3.22;;
58760;SDS011;44529;47.464;19.014;2023-04-01T18:14:31;4.37;;;2.85;;
58760;SDS011;44529;47.464;19.014;2023-04-01T18:21:36;4.65;;;2.60;;
58760;SDS011;44529;47.464;19.014;2023-04-01T18:24:54;3.75;;;1.85;;
58760;SDS011;44529;47.464;19.014;2023-04-01T18:31:32;2.55;;;1.80;;
58760;SDS011;44529;47.464;19.014;2023-04-01T18:38:11;3.40;;;1.80;;
58760;SDS011;44529;47.464;19.014;2023-04-01T18:48:08;5.12;;;1.83;;
58760;SDS011;44529;47.464;19.014;2023-04-01T18:51:21;3.75;;;2.28;;
58760;SDS011;44529;47.464;19.014;2023-04-01T18:54:42;3.80;;;3.08;;
58760;SDS011;44529;47.464;19.014;2023-04-01T18:57:54;5.53;;;4.12;;
58760;SDS011;44529;47.464;19.014;2023-04-01T19:01:27;5.90;;;4.30;;
58760;SDS011;44529;47.464;19.014;2023-04-01T19:04:52;6.82;;;4.50;;
58760;SDS011;44529;47.464;19.014;2023-04-01T19:08:19;6.28;;;4.50;;
58760;SDS011;44529;47.464;19.014;2023-04-01T19:18:18;8.35;;;5.30;;
58760;SDS011;44529;47.464;19.014;2023-04-01T19:21:37;6.75;;;4.95;;
58760;SDS011;44529;47.464;19.014;2023-04-01T19:25:05;7.55;;;5.10;;
58760;SDS011;44529;47.464;19.014;2023-04-01T19:28:32;8.30;;;5.43;;
58760;SDS011;44529;47.464;19.014;2023-04-01T19:35:26;9.68;;;5.72;;
58760;SDS011;44529;47.464;19.014;2023-04-01T19:38:53;9.38;;;6.25;;
58760;SDS011;44529;47.464;19.014;2023-04-01T19:42:11;8.27;;;6.25;;
58760;SDS011;44529;47.464;19.014;2023-04-01T19:49:23;8.03;;;5.97;;
58760;SDS011;44529;47.464;19.014;2023-04-01T19:52:31;7.70;;;5.30;;
58760;SDS011;44529;47.464;19.014;2023-04-01T19:56:12;9.40;;;5.45;;
58760;SDS011;44529;47.464;19.014;2023-04-01T19:59:23;6.90;;;5.80;;
58760;SDS011;44529;47.464;19.014;2023-04-01T20:02:50;7.85;;;5.55;;
58760;SDS011;44529;47.464;19.014;2023-04-01T20:12:53;7.85;;;5.55;;
58760;SDS011;44529;47.464;19.014;2023-04-01T20:16:04;5.93;;;5.28;;
58760;SDS011;44529;47.464;19.014;2023-04-01T20:19:09;7.03;;;5.20;;
58760;SDS011;44529;47.464;19.014;2023-04-01T20:29:04;7.10;;;5.30;;
58760;SDS011;44529;47.464;19.014;2023-04-01T20:36:21;8.88;;;5.28;;
58760;SDS011;44529;47.464;19.014;2023-04-01T20:39:36;8.65;;;5.35;;
58760;SDS011;44529;47.464;19.014;2023-04-01T20:46:52;9.20;;;4.97;;
58760;SDS011;44529;47.464;19.014;2023-04-01T20:53:50;9.18;;;6.45;;
58760;SDS011;44529;47.464;19.014;2023-04-01T20:57:12;10.25;;;6.75;;
58760;SDS011;44529;47.464;19.014;2023-04-01T21:04:26;9.77;;;7.27;;
58760;SDS011;44529;47.464;19.014;2023-04-01T21:14:28;11.18;;;6.35;;
58760;SDS011;44529;47.464;19.014;2023-04-01T21:28:30;7.85;;;5.47;;
58760;SDS011;44529;47.464;19.014;2023-04-01T21:42:10;6.65;;;4.80;;
58760;SDS011;44529;47.464;19.014;2023-04-01T22:06:41;6.40;;;3.08;;
58760;SDS011;44529;47.464;19.014;2023-04-01T22:13:18;7.12;;;4.25;;
58760;SDS011;44529;47.464;19.014;2023-04-01T22:16:30;4.60;;;3.67;;
58760;SDS011;44529;47.464;19.014;2023-04-01T22:23:29;4.07;;;2.60;;
58760;SDS011;44529;47.464;19.014;2023-04-01T22:30:03;3.55;;;2.62;;
58760;SDS011;44529;47.464;19.014;2023-04-01T22:33:07;3.25;;;2.45;;
58760;SDS011;44529;47.464;19.014;2023-04-01T22:39:32;3.33;;;2.80;;
58760;SDS011;44529;47.464;19.014;2023-04-01T22:42:43;2.83;;;2.53;;
58760;SDS011;44529;47.464;19.014;2023-04-01T22:49:21;1.35;;;1.17;;
58760;SDS011;44529;47.464;19.014;2023-04-01T22:52:31;1.02;;;0.88;;
58760;SDS011;44529;47.464;19.014;2023-04-01T22:55:40;0.62;;;0.55;;
58760;SDS011;44529;47.464;19.014;2023-04-01T22:59:06;1.30;;;0.68;;
58760;SDS011;44529;47.464;19.014;2023-04-01T23:02:22;0.98;;;0.88;;
58760;SDS011;44529;47.464;19.014;2023-04-01T23:05:30;3.15;;;1.77;;
58760;SDS011;44529;47.464;19.014;2023-04-01T23:11:49;2.42;;;1.80;;
58760;SDS011;44529;47.464;19.014;2023-04-01T23:14:59;2.00;;;1.80;;
58760;SDS011;44529;47.464;19.014;2023-04-01T23:18:11;2.55;;;2.00;;
58760;SDS011;44529;47.464;19.014;2023-04-01T23:24:38;2.62;;;1.60;;
58760;SDS011;44529;47.464;19.014;2023-04-01T23:31:00;2.28;;;1.83;;
58760;SDS011;44529;47.464;19.014;2023-04-01T23:37:15;2.03;;;1.10;;
58760;SDS011;44529;47.464;19.014;2023-04-01T23:40:19;1.35;;;1.00;;
58760;SDS011;44529;47.464;19.014;2023-04-01T23:43:24;0.82;;;0.82;;
58760;SDS011;44529;47.464;19.014;2023-04-01T23:46:30;1.08;;;0.85;;
58760;SDS011;44529;47.464;19.014;2023-04-01T23:49:37;1.02;;;0.93;;
58760;SDS011;44529;47.464;19.014;2023-04-01T23:52:47;0.85;;;0.85;;
58760;SDS011;44529;47.464;19.014;2023-04-01T23:55:51;1.15;;;0.80;;
58760;SDS011;44529;47.464;19.014;2023-04-01T23:58:54;1.62;;;1.10;;
